createdAt,value
2016-04-14T00:00:47.186Z,995.36
2016-04-14T00:01:47.205Z,995.34
2016-04-14T00:02:47.222Z,995.37
2016-04-14T00:03:47.241Z,995.35
2016-04-14T00:04:47.274Z,995.37
2016-04-14T00:05:47.293Z,995.36
2016-04-14T00:06:47.311Z,995.32
2016-04-14T00:07:47.346Z,995.34
2016-04-14T00:08:47.363Z,995.29
2016-04-14T00:09:47.380Z,995.27
2016-04-14T00:10:47.399Z,995.25
2016-04-14T00:11:47.432Z,995.27
2016-04-14T00:12:47.450Z,995.22
2016-04-14T00:13:47.469Z,995.24
2016-04-14T00:14:47.487Z,995.25
2016-04-14T00:15:47.521Z,995.29
2016-04-14T00:16:47.540Z,995.28
2016-04-14T00:17:47.557Z,995.27
2016-04-14T00:18:47.579Z,995.28
2016-04-14T00:19:47.613Z,995.3
2016-04-14T00:20:47.631Z,995.27
2016-04-14T00:21:47.649Z,995.29
2016-04-14T00:22:47.668Z,995.33
2016-04-14T00:23:47.701Z,995.27
2016-04-14T00:24:47.720Z,995.29
2016-04-14T00:25:47.737Z,995.31
2016-04-14T00:26:47.773Z,995.29
2016-04-14T00:27:47.790Z,995.28
2016-04-14T00:28:47.808Z,995.29
2016-04-14T00:29:47.828Z,995.28
2016-04-14T00:30:47.861Z,995.26
2016-04-14T00:31:47.878Z,995.26
2016-04-14T00:32:47.914Z,995.22
2016-04-14T00:33:47.931Z,995.25
2016-04-14T00:34:47.950Z,995.25
2016-04-14T00:35:47.969Z,995.21
2016-04-14T00:36:47.993Z,995.25
2016-04-14T00:37:48.012Z,995.24
2016-04-14T00:38:48.030Z,995.23
2016-04-14T00:39:48.048Z,995.26
2016-04-14T00:40:48.082Z,995.23
2016-04-14T00:41:48.101Z,995.26
2016-04-14T00:42:48.118Z,995.24
2016-04-14T00:43:48.137Z,995.25
2016-04-14T00:44:48.171Z,995.25
2016-04-14T00:45:48.190Z,995.22
2016-04-14T00:46:48.208Z,995.24
2016-04-14T00:47:49.648Z,995.23
2016-04-14T00:48:48.260Z,995.28
2016-04-14T00:49:48.279Z,995.25
2016-04-14T00:50:48.297Z,995.27
2016-04-14T00:51:48.314Z,995.25
2016-04-14T00:52:48.349Z,995.26
2016-04-14T00:53:48.367Z,995.24
2016-04-14T00:54:48.386Z,995.25
2016-04-14T00:55:48.403Z,995.27
2016-04-14T00:56:48.438Z,995.28
2016-04-14T00:57:48.456Z,995.28
2016-04-14T00:58:48.474Z,995.25
2016-04-14T00:59:48.492Z,995.25
2016-04-14T01:00:48.527Z,995.26
2016-04-14T01:01:48.544Z,995.25
2016-04-14T01:02:48.563Z,995.28
2016-04-14T01:03:48.582Z,995.26
2016-04-14T01:04:48.599Z,995.28
2016-04-14T01:05:48.634Z,995.34
2016-04-14T01:06:48.652Z,995.29
2016-04-14T01:07:48.671Z,995.27
2016-04-14T01:08:48.704Z,995.3
2016-04-14T01:09:48.723Z,995.3
2016-04-14T01:10:48.741Z,995.29
2016-04-14T01:11:48.759Z,995.3
2016-04-14T01:12:48.793Z,995.27
2016-04-14T01:13:48.812Z,995.24
2016-04-14T01:14:48.829Z,995.29
2016-04-14T01:15:48.848Z,995.28
2016-04-14T01:16:48.867Z,995.24
2016-04-14T01:17:48.900Z,995.29
2016-04-14T01:18:48.913Z,995.24
2016-04-14T01:19:48.947Z,995.24
2016-04-14T01:20:48.965Z,995.25
2016-04-14T01:21:48.983Z,995.25
2016-04-14T01:22:49.002Z,995.22
2016-04-14T01:23:49.036Z,995.22
2016-04-14T01:24:49.054Z,995.17
2016-04-14T01:25:49.072Z,995.18
2016-04-14T01:26:49.091Z,995.2
2016-04-14T01:27:49.124Z,995.18
2016-04-14T01:28:49.143Z,995.24
2016-04-14T01:29:49.161Z,995.19
2016-04-14T01:30:49.179Z,995.23
2016-04-14T01:31:49.214Z,995.24
2016-04-14T01:32:49.232Z,995.24
2016-04-14T01:33:49.250Z,995.22
2016-04-14T01:34:49.268Z,995.24
2016-04-14T01:35:49.287Z,995.28
2016-04-14T01:36:49.321Z,995.26
2016-04-14T01:37:49.339Z,995.28
2016-04-14T01:38:49.357Z,995.33
2016-04-14T01:39:49.391Z,995.29
2016-04-14T01:40:49.409Z,995.33
2016-04-14T01:41:49.428Z,995.32
2016-04-14T01:42:49.446Z,995.3
2016-04-14T01:43:49.465Z,995.36
2016-04-14T01:44:49.498Z,995.3
2016-04-14T01:45:49.517Z,995.28
2016-04-14T01:46:49.534Z,995.29
2016-04-14T01:47:49.553Z,995.3
2016-04-14T01:48:49.587Z,995.29
2016-04-14T01:49:49.606Z,995.32
2016-04-14T01:50:49.624Z,995.29
2016-04-14T01:51:49.642Z,995.29
2016-04-14T01:52:49.676Z,995.31
2016-04-14T01:53:49.694Z,995.25
2016-04-14T01:54:49.713Z,995.27
2016-04-14T01:55:49.730Z,995.27
2016-04-14T01:56:49.750Z,995.25
2016-04-14T01:57:49.783Z,995.29
2016-04-14T01:58:49.802Z,995.26
2016-04-14T01:59:49.820Z,995.26
2016-04-14T02:00:49.838Z,995.24
2016-04-14T02:01:49.872Z,995.23
2016-04-14T02:02:49.891Z,995.26
2016-04-14T02:03:49.909Z,995.23
2016-04-14T02:04:49.927Z,995.23
2016-04-14T02:05:49.960Z,995.23
2016-04-14T02:06:49.979Z,995.23
2016-04-14T02:07:49.998Z,995.27
2016-04-14T02:08:50.016Z,995.23
2016-04-14T02:09:50.034Z,995.24
2016-04-14T02:10:50.068Z,995.27
2016-04-14T02:11:50.086Z,995.25
2016-04-14T02:12:50.104Z,995.28
2016-04-14T02:13:50.123Z,995.31
2016-04-14T02:14:50.157Z,995.29
2016-04-14T02:15:50.176Z,995.29
2016-04-14T02:16:50.195Z,995.32
2016-04-14T02:17:50.212Z,995.32
2016-04-14T02:18:50.230Z,995.36
2016-04-14T02:19:50.265Z,995.37
2016-04-14T02:20:50.283Z,995.35
2016-04-14T02:21:50.301Z,995.36
2016-04-14T02:22:50.320Z,995.41
2016-04-14T02:23:50.338Z,995.41
2016-04-14T02:24:50.372Z,995.41
2016-04-14T02:25:50.389Z,995.42
2016-04-14T02:26:50.408Z,995.45
2016-04-14T02:27:50.426Z,995.43
2016-04-14T02:28:50.461Z,995.43
2016-04-14T02:29:50.479Z,995.47
2016-04-14T02:30:50.496Z,995.44
2016-04-14T02:31:50.516Z,995.43
2016-04-14T02:32:50.549Z,995.42
2016-04-14T02:33:50.568Z,995.44
2016-04-14T02:34:50.586Z,995.47
2016-04-14T02:35:50.604Z,995.48
2016-04-14T02:36:50.638Z,995.51
2016-04-14T02:37:50.657Z,995.52
2016-04-14T02:38:50.674Z,995.47
2016-04-14T02:39:50.693Z,995.48
2016-04-14T02:40:50.712Z,995.47
2016-04-14T02:41:50.745Z,995.52
2016-04-14T02:42:50.764Z,995.54
2016-04-14T02:43:50.782Z,995.59
2016-04-14T02:44:50.800Z,995.58
2016-04-14T02:45:50.818Z,995.6
2016-04-14T02:46:50.853Z,995.6
2016-04-14T02:47:50.870Z,995.67
2016-04-14T02:48:50.889Z,995.63
2016-04-14T02:49:50.908Z,995.64
2016-04-14T02:50:50.925Z,995.67
2016-04-14T02:51:50.960Z,995.69
2016-04-14T02:52:50.978Z,995.69
2016-04-14T02:53:50.997Z,995.7
2016-04-14T02:54:51.030Z,995.72
2016-04-14T02:55:51.033Z,995.73
2016-04-14T02:56:51.067Z,995.72
2016-04-14T02:57:51.085Z,995.74
2016-04-14T02:58:51.103Z,995.76
2016-04-14T02:59:51.122Z,995.76
2016-04-14T03:00:51.156Z,995.76
2016-04-14T03:01:51.174Z,995.78
2016-04-14T03:02:51.193Z,995.81
2016-04-14T03:03:51.210Z,995.84
2016-04-14T03:04:51.230Z,995.84
2016-04-14T03:05:51.263Z,995.84
2016-04-14T03:06:51.281Z,995.87
2016-04-14T03:07:51.316Z,995.88
2016-04-14T03:08:51.318Z,995.9
2016-04-14T03:09:51.337Z,995.89
2016-04-14T03:10:51.370Z,995.9
2016-04-14T03:11:51.388Z,995.91
2016-04-14T03:12:51.406Z,995.94
2016-04-14T03:13:51.426Z,995.98
2016-04-14T03:14:51.459Z,995.96
2016-04-14T03:15:51.477Z,995.96
2016-04-14T03:16:51.496Z,995.96
2016-04-14T03:17:51.514Z,995.99
2016-04-14T03:18:51.548Z,996.01
2016-04-14T03:19:51.567Z,996
2016-04-14T03:20:51.584Z,995.99
2016-04-14T03:21:51.603Z,996
2016-04-14T03:22:51.622Z,996.03
2016-04-14T03:23:51.639Z,996.03
2016-04-14T03:24:51.658Z,996.08
2016-04-14T03:25:51.692Z,996.06
2016-04-14T03:26:51.710Z,996.06
2016-04-14T03:27:51.729Z,996.09
2016-04-14T03:28:51.747Z,996.12
2016-04-14T03:29:51.781Z,996.16
2016-04-14T03:30:51.799Z,996.13
2016-04-14T03:31:51.817Z,996.18
2016-04-14T03:32:51.852Z,996.19
2016-04-14T03:33:51.854Z,996.18
2016-04-14T03:34:51.888Z,996.21
2016-04-14T03:35:51.906Z,996.18
2016-04-14T03:36:51.924Z,996.19
2016-04-14T03:37:51.943Z,996.18
2016-04-14T03:38:51.977Z,996.22
2016-04-14T03:39:51.995Z,996.21
2016-04-14T03:40:52.029Z,996.22
2016-04-14T03:41:52.032Z,996.23
2016-04-14T03:42:52.050Z,996.22
2016-04-14T03:43:52.068Z,996.23
2016-04-14T03:44:52.102Z,996.21
2016-04-14T03:45:52.120Z,996.21
2016-04-14T03:46:52.140Z,996.28
2016-04-14T03:47:52.173Z,996.24
2016-04-14T03:48:52.175Z,996.27
2016-04-14T03:49:52.210Z,996.27
2016-04-14T03:50:52.228Z,996.3
2016-04-14T03:51:52.246Z,996.34
2016-04-14T03:52:52.264Z,996.36
2016-04-14T03:53:52.298Z,996.41
2016-04-14T03:54:52.317Z,996.4
2016-04-14T03:55:52.336Z,996.43
2016-04-14T03:56:52.353Z,996.45
2016-04-14T03:57:52.371Z,996.45
2016-04-14T03:58:52.389Z,996.45
2016-04-14T03:59:52.424Z,996.42
2016-04-14T04:00:52.442Z,996.47
2016-04-14T04:01:52.460Z,996.43
2016-04-14T04:02:52.479Z,996.44
2016-04-14T04:03:52.497Z,996.41
2016-04-14T04:04:52.515Z,996.44
2016-04-14T04:05:52.549Z,996.46
2016-04-14T04:06:52.568Z,996.41
2016-04-14T04:07:52.585Z,996.41
2016-04-14T04:08:52.605Z,996.46
2016-04-14T04:09:52.623Z,996.41
2016-04-14T04:10:52.656Z,996.46
2016-04-14T04:11:52.675Z,996.41
2016-04-14T04:12:52.693Z,996.44
2016-04-14T04:13:52.712Z,996.44
2016-04-14T04:14:52.730Z,996.45
2016-04-14T04:15:52.764Z,996.41
2016-04-14T04:16:52.782Z,996.41
2016-04-14T04:17:52.801Z,996.44
2016-04-14T04:18:52.818Z,996.43
2016-04-14T04:19:52.837Z,996.44
2016-04-14T04:20:52.856Z,996.45
2016-04-14T04:21:52.890Z,996.44
2016-04-14T04:22:52.908Z,996.42
2016-04-14T04:23:52.926Z,996.43
2016-04-14T04:24:52.944Z,996.4
2016-04-14T04:25:52.962Z,996.41
2016-04-14T04:26:52.997Z,996.46
2016-04-14T04:27:53.015Z,996.45
2016-04-14T04:28:53.033Z,996.46
2016-04-14T04:29:53.051Z,996.44
2016-04-14T04:30:53.070Z,996.47
2016-04-14T04:31:53.103Z,996.5
2016-04-14T04:32:53.122Z,996.51
2016-04-14T04:33:53.141Z,996.52
2016-04-14T04:34:53.158Z,996.55
2016-04-14T04:35:53.177Z,996.57
2016-04-14T04:36:53.211Z,996.55
2016-04-14T04:37:53.229Z,996.59
2016-04-14T04:38:53.247Z,996.61
2016-04-14T04:39:53.265Z,996.61
2016-04-14T04:40:53.299Z,996.63
2016-04-14T04:41:53.302Z,996.65
2016-04-14T04:42:53.337Z,996.67
2016-04-14T04:43:53.354Z,996.66
2016-04-14T04:44:53.373Z,996.69
2016-04-14T04:45:53.391Z,996.69
2016-04-14T04:46:53.409Z,996.68
2016-04-14T04:47:53.428Z,996.68
2016-04-14T04:48:53.462Z,996.69
2016-04-14T04:49:53.480Z,996.69
2016-04-14T04:50:53.498Z,996.71
2016-04-14T04:51:53.517Z,996.71
2016-04-14T04:52:53.535Z,996.76
2016-04-14T04:53:53.569Z,996.75
2016-04-14T04:54:53.587Z,996.75
2016-04-14T04:55:53.606Z,996.76
2016-04-14T04:56:53.624Z,996.81
2016-04-14T04:57:53.658Z,996.79
2016-04-14T04:58:53.660Z,996.85
2016-04-14T04:59:53.678Z,996.8
2016-04-14T05:00:53.714Z,996.81
2016-04-14T05:01:53.731Z,996.8
2016-04-14T05:02:53.749Z,996.8
2016-04-14T05:03:53.769Z,996.84
2016-04-14T05:04:53.786Z,996.82
2016-04-14T05:05:53.805Z,996.82
2016-04-14T05:06:53.838Z,996.85
2016-04-14T05:07:53.857Z,996.83
2016-04-14T05:08:53.874Z,996.81
2016-04-14T05:09:53.894Z,996.8
2016-04-14T05:10:53.912Z,996.8
2016-04-14T05:11:53.946Z,996.83
2016-04-14T05:12:53.978Z,996.79
2016-04-14T05:13:54.041Z,996.81
2016-04-14T05:14:54.104Z,996.81
2016-04-14T05:15:54.166Z,996.8
2016-04-14T05:16:54.230Z,996.85
2016-04-14T05:17:54.298Z,996.86
2016-04-14T05:18:54.334Z,996.88
2016-04-14T05:19:54.367Z,996.85
2016-04-14T05:20:54.402Z,996.86
2016-04-14T05:21:54.437Z,996.87
2016-04-14T05:22:54.484Z,996.9
2016-04-14T05:23:54.508Z,996.9
2016-04-14T05:24:54.531Z,996.91
2016-04-14T05:25:54.555Z,996.87
2016-04-14T05:26:54.579Z,996.93
2016-04-14T05:27:54.603Z,996.94
2016-04-14T05:28:54.639Z,996.92
2016-04-14T05:29:54.659Z,996.9
2016-04-14T05:30:54.681Z,996.9
2016-04-14T05:31:55.373Z,996.92
2016-04-14T05:32:54.721Z,996.89
2016-04-14T05:33:54.739Z,996.86
2016-04-14T05:34:54.775Z,996.89
2016-04-14T05:35:54.794Z,996.9
2016-04-14T05:36:54.813Z,996.86
2016-04-14T05:37:54.832Z,996.83
2016-04-14T05:38:54.850Z,996.81
2016-04-14T05:39:54.869Z,996.84
2016-04-14T05:40:54.902Z,996.84
2016-04-14T05:41:54.921Z,996.86
2016-04-14T05:42:54.938Z,996.86
2016-04-14T05:43:54.957Z,996.89
2016-04-14T05:44:54.976Z,996.9
2016-04-14T05:45:54.994Z,996.89
2016-04-14T05:46:55.028Z,996.89
2016-04-14T05:47:55.046Z,996.9
2016-04-14T05:48:55.065Z,996.87
2016-04-14T05:49:55.083Z,996.89
2016-04-14T05:50:55.101Z,996.92
2016-04-14T05:51:55.135Z,996.92
2016-04-14T05:52:55.154Z,996.92
2016-04-14T05:53:55.171Z,996.92
2016-04-14T05:54:55.190Z,996.95
2016-04-14T05:55:55.208Z,996.97
2016-04-14T05:56:55.226Z,996.93
2016-04-14T05:57:55.261Z,996.97
2016-04-14T05:58:55.279Z,996.96
2016-04-14T05:59:55.298Z,996.98
2016-04-14T06:00:55.315Z,996.98
2016-04-14T06:01:55.334Z,997.02
2016-04-14T06:02:55.353Z,997.01
2016-04-14T06:03:55.386Z,997.03
2016-04-14T06:04:55.405Z,997.02
2016-04-14T06:05:55.422Z,997.03
2016-04-14T06:06:55.441Z,997.03
2016-04-14T06:07:55.458Z,997.04
2016-04-14T06:08:55.477Z,997.06
2016-04-14T06:09:55.511Z,997.12
2016-04-14T06:10:55.529Z,997.08
2016-04-14T06:11:55.548Z,997.11
2016-04-14T06:12:55.566Z,997.15
2016-04-14T06:13:55.584Z,997.16
2016-04-14T06:14:55.618Z,997.12
2016-04-14T06:15:55.637Z,997.15
2016-04-14T06:16:55.655Z,997.16
2016-04-14T06:17:55.673Z,997.18
2016-04-14T06:18:55.693Z,997.19
2016-04-14T06:19:55.710Z,997.22
2016-04-14T06:20:55.744Z,997.18
2016-04-14T06:21:55.762Z,997.2
2016-04-14T06:22:55.781Z,997.2
2016-04-14T06:23:55.799Z,997.18
2016-04-14T06:24:55.818Z,997.17
2016-04-14T06:25:55.852Z,997.18
2016-04-14T06:26:55.870Z,997.2
2016-04-14T06:27:55.888Z,997.22
2016-04-14T06:28:55.907Z,997.22
2016-04-14T06:29:55.925Z,997.31
2016-04-14T06:30:55.959Z,997.3
2016-04-14T06:31:55.977Z,997.33
2016-04-14T06:32:55.995Z,997.29
2016-04-14T06:33:56.013Z,997.34
2016-04-14T06:34:56.031Z,997.34
2016-04-14T06:35:56.050Z,997.34
2016-04-14T06:36:56.083Z,997.38
2016-04-14T06:37:56.102Z,997.35
2016-04-14T06:38:56.121Z,997.39
2016-04-14T06:39:56.139Z,997.41
2016-04-14T06:40:56.173Z,997.39
2016-04-14T06:41:56.191Z,997.45
2016-04-14T06:42:56.210Z,997.43
2016-04-14T06:43:56.227Z,997.44
2016-04-14T06:44:56.246Z,997.48
2016-04-14T06:45:56.265Z,997.45
2016-04-14T06:46:56.283Z,997.46
2016-04-14T06:47:56.316Z,997.48
2016-04-14T06:48:56.335Z,997.48
2016-04-14T06:49:56.353Z,997.51
2016-04-14T06:50:56.371Z,997.5
2016-04-14T06:51:56.406Z,997.5
2016-04-14T06:52:56.424Z,997.52
2016-04-14T06:53:56.443Z,997.51
2016-04-14T06:54:56.460Z,997.52
2016-04-14T06:55:56.479Z,997.54
2016-04-14T06:56:56.498Z,997.52
2016-04-14T06:57:56.515Z,997.58
2016-04-14T06:58:56.551Z,997.59
2016-04-14T06:59:56.568Z,997.59
2016-04-14T07:00:56.587Z,997.59
2016-04-14T07:01:56.605Z,997.62
2016-04-14T07:02:56.623Z,997.62
2016-04-14T07:03:56.643Z,997.63
2016-04-14T07:04:56.676Z,997.63
2016-04-14T07:05:56.695Z,997.62
2016-04-14T07:06:56.708Z,997.65
2016-04-14T07:07:56.742Z,997.63
2016-04-14T07:08:56.754Z,997.68
2016-04-14T07:09:56.772Z,997.65
2016-04-14T07:10:56.811Z,997.65
2016-04-14T07:11:56.816Z,997.69
2016-04-14T07:12:56.834Z,997.66
2016-04-14T07:13:56.860Z,997.72
2016-04-14T07:14:56.893Z,997.7
2016-04-14T07:15:56.912Z,997.68
2016-04-14T07:16:56.929Z,997.72
2016-04-14T07:17:56.944Z,997.72
2016-04-14T07:18:56.979Z,997.72
2016-04-14T07:19:56.997Z,997.73
2016-04-14T07:20:57.015Z,997.71
2016-04-14T07:21:57.033Z,997.72
2016-04-14T07:22:57.051Z,997.73
2016-04-14T07:23:57.085Z,997.73
2016-04-14T07:24:57.104Z,997.69
2016-04-14T07:25:57.122Z,997.71
2016-04-14T07:26:57.140Z,997.72
2016-04-14T07:27:57.158Z,997.74
2016-04-14T07:28:57.176Z,997.75
2016-04-14T07:29:57.211Z,997.77
2016-04-14T07:30:57.229Z,997.73
2016-04-14T07:31:57.247Z,997.75
2016-04-14T07:32:57.266Z,997.77
2016-04-14T07:33:57.300Z,997.8
2016-04-14T07:34:57.317Z,997.78
2016-04-14T07:35:57.336Z,997.78
2016-04-14T07:36:57.355Z,997.81
2016-04-14T07:37:57.373Z,997.83
2016-04-14T07:38:57.408Z,997.82
2016-04-14T07:39:57.426Z,997.85
2016-04-14T07:40:57.444Z,997.83
2016-04-14T07:41:57.462Z,997.88
2016-04-14T07:42:57.480Z,997.87
2016-04-14T07:43:57.514Z,997.84
2016-04-14T07:44:57.533Z,997.93
2016-04-14T07:45:57.551Z,997.97
2016-04-14T07:46:57.569Z,997.95
2016-04-14T07:47:57.602Z,997.94
2016-04-14T07:48:57.621Z,997.94
2016-04-14T07:49:57.640Z,997.94
2016-04-14T07:50:57.673Z,997.98
2016-04-14T07:51:57.677Z,997.98
2016-04-14T07:52:57.710Z,998.01
2016-04-14T07:53:57.729Z,998.02
2016-04-14T07:54:57.747Z,998.03
2016-04-14T07:55:57.765Z,998.02
2016-04-14T07:56:57.784Z,998.01
2016-04-14T07:57:57.817Z,998.1
2016-04-14T07:58:57.836Z,998.08
2016-04-14T07:59:57.853Z,998.08
2016-04-14T08:00:57.872Z,998.11
2016-04-14T08:01:57.906Z,998.1
2016-04-14T08:02:57.925Z,998.09
2016-04-14T08:03:57.943Z,998.09
2016-04-14T08:04:57.961Z,998.14
2016-04-14T08:05:57.980Z,998.11
2016-04-14T08:06:58.014Z,998.17
2016-04-14T08:07:58.031Z,998.17
2016-04-14T08:08:58.047Z,998.15
2016-04-14T08:09:58.059Z,998.17
2016-04-14T08:10:58.093Z,998.16
2016-04-14T08:11:58.111Z,998.18
2016-04-14T08:12:58.129Z,998.15
2016-04-14T08:13:58.148Z,998.15
2016-04-14T08:14:58.181Z,998.17
2016-04-14T08:15:58.200Z,998.18
2016-04-14T08:16:58.219Z,998.21
2016-04-14T08:17:58.237Z,998.22
2016-04-14T08:18:58.270Z,998.25
2016-04-14T08:19:58.289Z,998.23
2016-04-14T08:20:58.307Z,998.26
2016-04-14T08:21:58.325Z,998.27
2016-04-14T08:22:58.344Z,998.19
2016-04-14T08:23:58.377Z,998.23
2016-04-14T08:24:58.396Z,998.25
2016-04-14T08:25:58.413Z,998.21
2016-04-14T08:26:58.432Z,998.22
2016-04-14T08:27:58.466Z,998.26
2016-04-14T08:28:58.485Z,998.27
2016-04-14T08:29:58.504Z,998.26
2016-04-14T08:30:58.521Z,998.31
2016-04-14T08:31:58.555Z,998.32
2016-04-14T08:32:58.574Z,998.31
2016-04-14T08:33:58.607Z,998.28
2016-04-14T08:34:58.626Z,998.27
2016-04-14T08:35:58.644Z,998.25
2016-04-14T08:36:58.670Z,998.32
2016-04-14T08:37:58.689Z,998.32
2016-04-14T08:38:58.707Z,998.31
2016-04-14T08:39:58.726Z,998.35
2016-04-14T08:40:58.744Z,998.28
2016-04-14T08:41:58.778Z,998.35
2016-04-14T08:42:58.796Z,998.33
2016-04-14T08:43:58.814Z,998.36
2016-04-14T08:44:58.833Z,998.35
2016-04-14T08:45:58.866Z,998.35
2016-04-14T08:46:58.885Z,998.37
2016-04-14T08:47:58.903Z,998.38
2016-04-14T08:48:58.921Z,998.4
2016-04-14T08:49:58.955Z,998.36
2016-04-14T08:50:58.973Z,998.38
2016-04-14T08:51:58.991Z,998.44
2016-04-14T08:52:59.010Z,998.38
2016-04-14T08:53:59.044Z,998.37
2016-04-14T08:54:59.063Z,998.36
2016-04-14T08:55:59.080Z,998.37
2016-04-14T08:56:59.099Z,998.41
2016-04-14T08:57:59.132Z,998.4
2016-04-14T08:58:59.151Z,998.39
2016-04-14T08:59:59.170Z,998.37
2016-04-14T09:00:59.188Z,998.34
2016-04-14T09:01:59.222Z,998.35
2016-04-14T09:02:59.241Z,998.35
2016-04-14T09:03:59.259Z,998.38
2016-04-14T09:04:59.293Z,998.39
2016-04-14T09:05:59.312Z,998.45
2016-04-14T09:06:59.329Z,998.45
2016-04-14T09:07:59.348Z,998.45
2016-04-14T09:08:59.381Z,998.48
2016-04-14T09:09:59.400Z,998.49
2016-04-14T09:10:59.417Z,998.51
2016-04-14T09:11:59.452Z,998.51
2016-04-14T09:12:59.470Z,998.51
2016-04-14T09:13:59.488Z,998.58
2016-04-14T09:14:59.523Z,998.61
2016-04-14T09:15:59.541Z,998.61
2016-04-14T09:16:59.559Z,998.58
2016-04-14T09:17:59.594Z,998.61
2016-04-14T09:18:59.611Z,998.61
2016-04-14T09:19:59.630Z,998.62
2016-04-14T09:20:59.647Z,998.58
2016-04-14T09:21:59.666Z,998.62
2016-04-14T09:22:59.715Z,998.61
2016-04-14T09:23:59.718Z,998.61
2016-04-14T09:24:59.737Z,998.61
2016-04-14T09:25:59.771Z,998.63
2016-04-14T09:26:59.788Z,998.66
2016-04-14T09:27:59.808Z,998.68
2016-04-14T09:28:59.826Z,998.71
2016-04-14T09:29:59.860Z,998.68
2016-04-14T09:30:59.878Z,998.68
2016-04-14T09:31:59.896Z,998.66
2016-04-14T09:32:59.915Z,998.66
2016-04-14T09:33:59.948Z,998.69
2016-04-14T09:34:59.967Z,998.71
2016-04-14T09:35:59.985Z,998.71
2016-04-14T09:37:00.020Z,998.75
2016-04-14T09:38:00.038Z,998.7
2016-04-14T09:39:00.056Z,998.74
2016-04-14T09:40:00.074Z,998.73
2016-04-14T09:41:00.108Z,998.71
2016-04-14T09:42:00.142Z,998.7
2016-04-14T09:43:00.144Z,998.74
2016-04-14T09:44:00.178Z,998.72
2016-04-14T09:45:00.197Z,998.77
2016-04-14T09:46:00.214Z,998.72
2016-04-14T09:47:00.233Z,998.77
2016-04-14T09:48:00.267Z,998.76
2016-04-14T09:49:00.286Z,998.82
2016-04-14T09:50:00.304Z,998.83
2016-04-14T09:51:00.338Z,998.78
2016-04-14T09:52:00.356Z,998.72
2016-04-14T09:53:00.374Z,998.78
2016-04-14T09:54:00.393Z,998.76
2016-04-14T09:55:00.442Z,998.79
2016-04-14T09:56:00.445Z,998.75
2016-04-14T09:57:00.557Z,998.77
2016-04-14T09:58:00.497Z,998.77
2016-04-14T09:59:00.531Z,998.75
2016-04-14T10:00:00.534Z,998.79
2016-04-14T10:01:00.568Z,998.81
2016-04-14T10:02:00.587Z,998.77
2016-04-14T10:03:00.604Z,998.76
2016-04-14T10:04:00.638Z,998.83
2016-04-14T10:05:00.657Z,998.84
2016-04-14T10:06:00.675Z,998.85
2016-04-14T10:07:00.710Z,998.86
2016-04-14T10:08:00.728Z,998.83
2016-04-14T10:09:00.746Z,998.88
2016-04-14T10:10:00.765Z,998.82
2016-04-14T10:11:00.798Z,998.88
2016-04-14T10:12:00.832Z,998.85
2016-04-14T10:13:00.834Z,998.83
2016-04-14T10:14:00.869Z,998.79
2016-04-14T10:15:00.902Z,998.83
2016-04-14T10:16:00.905Z,998.81
2016-04-14T10:17:00.939Z,998.86
2016-04-14T10:18:00.958Z,998.84
2016-04-14T10:19:00.976Z,998.86
2016-04-14T10:20:01.010Z,998.9
2016-04-14T10:21:01.028Z,998.86
2016-04-14T10:22:01.046Z,998.9
2016-04-14T10:23:01.080Z,998.88
2016-04-14T10:24:01.099Z,998.91
2016-04-14T10:25:01.116Z,998.88
2016-04-14T10:26:01.151Z,998.85
2016-04-14T10:27:01.215Z,998.86
2016-04-14T10:28:01.202Z,998.87
2016-04-14T10:29:01.221Z,998.91
2016-04-14T10:30:01.240Z,998.9
2016-04-14T10:31:01.258Z,998.96
2016-04-14T10:32:01.292Z,998.92
2016-04-14T10:33:01.310Z,998.93
2016-04-14T10:34:01.329Z,998.94
2016-04-14T10:35:01.378Z,998.95
2016-04-14T10:36:01.382Z,998.99
2016-04-14T10:37:01.415Z,998.97
2016-04-14T10:38:01.434Z,998.93
2016-04-14T10:39:01.452Z,998.89
2016-04-14T10:40:01.532Z,998.96
2016-04-14T10:41:01.504Z,998.89
2016-04-14T10:42:01.537Z,998.95
2016-04-14T10:43:01.556Z,998.97
2016-04-14T10:44:01.574Z,998.92
2016-04-14T10:45:01.593Z,998.96
2016-04-14T10:46:01.626Z,998.9
2016-04-14T10:47:01.645Z,998.91
2016-04-14T10:48:01.664Z,998.95
2016-04-14T10:49:01.697Z,998.91
2016-04-14T10:50:01.716Z,998.91
2016-04-14T10:51:01.749Z,998.9
2016-04-14T10:52:01.767Z,998.95
2016-04-14T10:53:01.785Z,998.95
2016-04-14T10:54:01.819Z,998.97
2016-04-14T10:55:01.838Z,998.95
2016-04-14T10:56:01.857Z,998.99
2016-04-14T10:57:01.922Z,999.02
2016-04-14T10:58:01.924Z,999.01
2016-04-14T10:59:01.943Z,999.02
2016-04-14T11:00:01.960Z,999.03
2016-04-14T11:01:01.979Z,999.01
2016-04-14T11:02:02.013Z,999.02
2016-04-14T11:03:02.063Z,999.03
2016-04-14T11:04:02.050Z,999.05
2016-04-14T11:05:02.085Z,999.04
2016-04-14T11:06:02.102Z,999.03
2016-04-14T11:07:02.121Z,999.06
2016-04-14T11:08:02.154Z,999.07
2016-04-14T11:09:02.173Z,999.05
2016-04-14T11:10:02.191Z,999.07
2016-04-14T11:11:02.225Z,999.08
2016-04-14T11:12:02.353Z,999.09
2016-04-14T11:13:02.277Z,999.11
2016-04-14T11:14:02.296Z,999.14
2016-04-14T11:15:02.314Z,999.12
2016-04-14T11:16:02.348Z,999.12
2016-04-14T11:17:02.366Z,999.09
2016-04-14T11:18:02.400Z,999.08
2016-04-14T11:19:02.419Z,999.05
2016-04-14T11:20:02.436Z,999.04
2016-04-14T11:21:02.470Z,999.09
2016-04-14T11:22:02.488Z,999.11
2016-04-14T11:23:02.507Z,999.13
2016-04-14T11:24:02.541Z,999.15
2016-04-14T11:25:02.560Z,999.21
2016-04-14T11:26:02.578Z,999.18
2016-04-14T11:27:02.611Z,999.24
2016-04-14T11:28:02.630Z,999.24
2016-04-14T11:29:02.663Z,999.24
2016-04-14T11:30:02.682Z,999.32
2016-04-14T11:31:02.701Z,999.34
2016-04-14T11:32:02.735Z,999.38
2016-04-14T11:33:02.753Z,999.33
2016-04-14T11:34:02.771Z,999.4
2016-04-14T11:35:02.804Z,999.46
2016-04-14T11:36:02.823Z,999.41
2016-04-14T11:37:02.856Z,999.42
2016-04-14T11:38:02.875Z,999.39
2016-04-14T11:39:02.892Z,999.37
2016-04-14T11:40:02.927Z,999.38
2016-04-14T11:41:02.945Z,999.41
2016-04-14T11:42:02.980Z,999.44
2016-04-14T11:43:02.998Z,999.41
2016-04-14T11:44:03.016Z,999.39
2016-04-14T11:45:03.034Z,999.4
2016-04-14T11:46:03.068Z,999.4
2016-04-14T11:47:03.086Z,999.37
2016-04-14T11:48:03.105Z,999.46
2016-04-14T11:49:03.138Z,999.41
2016-04-14T11:50:03.162Z,999.4
2016-04-14T11:51:03.196Z,999.37
2016-04-14T11:52:03.199Z,999.39
2016-04-14T11:53:03.232Z,999.42
2016-04-14T11:54:03.251Z,999.42
2016-04-14T11:55:03.285Z,999.41
2016-04-14T11:56:03.318Z,999.43
2016-04-14T11:57:03.353Z,999.41
2016-04-14T11:58:03.355Z,999.42
2016-04-14T11:59:03.373Z,999.4
2016-04-14T12:00:03.392Z,999.44
2016-04-14T12:01:03.426Z,999.42
2016-04-14T12:02:03.445Z,999.41
2016-04-14T12:03:03.478Z,999.4
2016-04-14T12:04:03.497Z,999.43
2016-04-14T12:05:03.514Z,999.48
2016-04-14T12:06:03.548Z,999.48
2016-04-14T12:07:03.567Z,999.48
2016-04-14T12:08:03.585Z,999.53
2016-04-14T12:09:03.603Z,999.45
2016-04-14T12:10:03.637Z,999.4
2016-04-14T12:11:03.656Z,999.46
2016-04-14T12:12:03.689Z,999.47
2016-04-14T12:13:03.708Z,999.47
2016-04-14T12:14:03.726Z,999.48
2016-04-14T12:15:03.760Z,999.47
2016-04-14T12:16:03.779Z,999.49
2016-04-14T12:17:03.797Z,999.46
2016-04-14T12:18:03.831Z,999.46
2016-04-14T12:19:03.849Z,999.52
2016-04-14T12:20:03.883Z,999.51
2016-04-14T12:21:03.901Z,999.54
2016-04-14T12:22:03.920Z,999.5
2016-04-14T12:23:03.954Z,999.53
2016-04-14T12:24:03.971Z,999.55
2016-04-14T12:25:03.990Z,999.57
2016-04-14T12:26:04.024Z,999.62
2016-04-14T12:27:04.042Z,999.61
2016-04-14T12:28:04.062Z,999.63
2016-04-14T12:29:04.095Z,999.65
2016-04-14T12:30:04.113Z,999.56
2016-04-14T12:31:04.147Z,999.55